In Rescue
 
Open Full Screen Window  High Contrast Mode
August 20, 2019 7:44 AM EDT
Weather Information
Wind Direction
  ---
Wind Speed
  00 kt (0 mph)
Wind Gust
  00 kt (0 mph)
Altimeter
30.09 in
Visibility
7 SM
Temperature
21° C
70° F
Dewpoint
21° C
70° F
Humidity
100%
1hr Rain Fall
00.00 in.
24hr Rain Fall
00.00 in.
Sky Condition
Clear
VFR

METAR KDLZ 201144Z AUTO 00000KT 7SM CLR 21/21 A3009 RMK AO2 LTG DSNT SE

FAA Disclaimer: The data displayed is for advisory purposes only and is not to be used for flight planning or operations.